createdAt,value
2023-04-10T00:00:01.519Z,50.29
2023-04-10T00:01:09.722Z,49.95
2023-04-10T00:02:17.920Z,50.29
2023-04-10T00:03:27.069Z,50.29
2023-04-10T00:04:36.255Z,50.29
2023-04-10T00:05:45.416Z,50.29
2023-04-10T00:06:54.598Z,50.29
2023-04-10T00:08:03.761Z,50.29
2023-04-10T00:09:12.969Z,50.29
2023-04-10T00:10:22.124Z,50.29
2023-04-10T00:11:31.292Z,50.29
2023-04-10T00:12:40.459Z,50.29
2023-04-10T00:13:49.630Z,50.29
2023-04-10T00:14:58.804Z,50.29
2023-04-10T00:16:07.977Z,50.29
2023-04-10T00:17:16.174Z,50.29
2023-04-10T00:18:25.331Z,50.29
2023-04-10T00:19:34.514Z,50.29
2023-04-10T00:20:43.684Z,50.29
2023-04-10T00:21:52.849Z,50.29
2023-04-10T00:23:02.028Z,50.29
2023-04-10T00:24:11.211Z,50.29
2023-04-10T00:25:19.390Z,50.29
2023-04-10T00:26:27.583Z,50.29
2023-04-10T00:27:35.837Z,50.29
2023-04-10T00:28:43.965Z,50.29
2023-04-10T00:29:53.139Z,50.29
2023-04-10T00:31:02.310Z,50.29
2023-04-10T00:32:11.487Z,50.29
2023-04-10T00:33:20.655Z,50.29
2023-04-10T00:34:29.828Z,50.29
2023-04-10T00:35:39.007Z,50.29
2023-04-10T00:36:48.188Z,50.29
2023-04-10T00:37:57.428Z,50.29
2023-04-10T00:39:06.520Z,50.29
2023-04-10T00:40:15.725Z,50.29
2023-04-10T00:41:24.879Z,50.29
2023-04-10T00:42:34.056Z,50.29
2023-04-10T00:43:42.251Z,50.29
2023-04-10T00:44:51.407Z,50.29
2023-04-10T00:46:00.567Z,50.29
2023-04-10T00:47:09.743Z,50.29
2023-04-10T00:48:18.912Z,50.29
2023-04-10T00:49:28.093Z,50.29
2023-04-10T00:50:37.270Z,50.29
2023-04-10T00:51:45.484Z,50.29
2023-04-10T00:52:53.655Z,50.29
2023-04-10T00:54:01.835Z,50.29
2023-04-10T00:55:10.028Z,50.29
2023-04-10T00:56:19.198Z,50.29
2023-04-10T00:57:28.373Z,50.29
2023-04-10T00:58:37.545Z,50.29
2023-04-10T00:59:46.715Z,50.29
2023-04-10T01:00:55.903Z,50.29
2023-04-10T01:02:05.062Z,50.29
2023-04-10T01:03:14.234Z,50.29
2023-04-10T01:04:23.403Z,50.29
2023-04-10T01:05:32.580Z,50.29
2023-04-10T01:06:41.744Z,50.29
2023-04-10T01:07:50.978Z,50.29
2023-04-10T01:09:00.091Z,50.29
2023-04-10T01:10:08.282Z,50.29
2023-04-10T01:11:17.469Z,50.29
2023-04-10T01:12:26.672Z,50.29
2023-04-10T01:13:35.808Z,50.29
2023-04-10T01:14:44.978Z,50.29
2023-04-10T01:15:54.149Z,50.29
2023-04-10T01:17:03.323Z,50.29
2023-04-10T01:18:11.517Z,50.29
2023-04-10T01:19:19.736Z,50.29
2023-04-10T01:20:28.868Z,50.29
2023-04-10T01:21:38.042Z,50.29
2023-04-10T01:22:47.249Z,50.29
2023-04-10T01:23:55.417Z,50.29
2023-04-10T01:25:03.599Z,50.29
2023-04-10T01:26:12.817Z,50.29
2023-04-10T01:27:21.954Z,50.29
2023-04-10T01:28:31.125Z,50.29
2023-04-10T01:29:40.303Z,50.29
2023-04-10T01:30:49.467Z,50.29
2023-04-10T01:31:58.640Z,50.29
2023-04-10T01:34:16.985Z,50.29
2023-04-10T01:35:26.165Z,50.29
2023-04-10T01:36:35.332Z,50.29
2023-04-10T01:37:44.522Z,50.29
2023-04-10T01:38:53.679Z,50.29
2023-04-10T01:40:01.898Z,50.29
2023-04-10T01:41:11.036Z,50.29
2023-04-10T01:42:20.210Z,50.29
2023-04-10T01:43:29.382Z,50.29
2023-04-10T01:44:38.568Z,50.29
2023-04-10T01:45:47.763Z,50.29
2023-04-10T01:46:56.921Z,50.29
2023-04-10T01:48:06.085Z,50.29
2023-04-10T01:49:14.280Z,50.29
2023-04-10T01:50:22.457Z,50.29
2023-04-10T01:51:30.660Z,50.29
2023-04-10T01:52:38.846Z,50.29
2023-04-10T01:53:48.046Z,50.29
2023-04-10T01:54:57.187Z,50.29
2023-04-10T01:56:06.369Z,50.29
2023-04-10T01:57:15.537Z,50.29
2023-04-10T01:58:24.697Z,50.29
2023-04-10T01:59:33.891Z,50.29
2023-04-10T02:00:43.077Z,50.29
2023-04-10T02:01:52.224Z,50.29
2023-04-10T02:03:01.411Z,50.29
2023-04-10T02:04:10.566Z,49.95
2023-04-10T02:05:19.765Z,50.29
2023-04-10T02:06:28.906Z,50.29
2023-04-10T02:07:37.124Z,50.29
2023-04-10T02:08:46.285Z,50.29
2023-04-10T02:09:55.447Z,50.29
2023-04-10T02:11:04.622Z,50.29
2023-04-10T02:12:13.795Z,50.29
2023-04-10T02:13:22.978Z,50.29
2023-04-10T02:14:32.152Z,50.29
2023-04-10T02:15:40.338Z,50.29
2023-04-10T02:16:48.511Z,50.29
2023-04-10T02:17:57.711Z,50.29
2023-04-10T02:19:05.893Z,49.95
2023-04-10T02:20:14.083Z,50.29
2023-04-10T02:21:23.250Z,50.29
2023-04-10T02:23:41.607Z,50.29
2023-04-10T02:24:50.794Z,50.29
2023-04-10T02:25:59.932Z,50.29
2023-04-10T02:27:09.117Z,50.29
2023-04-10T02:28:18.287Z,50.29
2023-04-10T02:29:27.460Z,50.29
2023-04-10T02:30:36.626Z,50.29
2023-04-10T02:31:45.802Z,50.29
2023-04-10T02:32:54.968Z,50.29
2023-04-10T02:34:04.147Z,50.29
2023-04-10T02:35:12.342Z,50.29
2023-04-10T02:36:21.511Z,50.29
2023-04-10T02:37:30.678Z,50.29
2023-04-10T02:38:39.854Z,49.95
2023-04-10T02:39:49.033Z,50.29
2023-04-10T02:40:58.234Z,50.29
2023-04-10T02:42:07.365Z,49.95
2023-04-10T02:43:16.571Z,50.29
2023-04-10T02:44:24.744Z,50.29
2023-04-10T02:45:32.931Z,50.29
2023-04-10T02:46:42.106Z,50.29
2023-04-10T02:47:50.306Z,50.29
2023-04-10T02:48:58.484Z,50.29
2023-04-10T02:50:07.658Z,50.29
2023-04-10T02:51:16.830Z,50.29
2023-04-10T02:52:26.000Z,50.29
2023-04-10T02:53:35.179Z,50.29
2023-04-10T02:54:44.344Z,50.29
2023-04-10T02:55:53.525Z,50.29
2023-04-10T02:57:02.777Z,50.29
2023-04-10T02:58:11.882Z,50.29
2023-04-10T02:59:21.048Z,50.29
2023-04-10T03:00:30.215Z,50.29
2023-04-10T03:01:39.384Z,50.29
2023-04-10T03:02:48.597Z,49.95
2023-04-10T03:03:56.777Z,50.29
2023-04-10T03:05:05.925Z,50.29
2023-04-10T03:06:15.092Z,50.29
2023-04-10T03:07:24.291Z,50.29
2023-04-10T03:08:33.440Z,50.29
2023-04-10T03:09:42.610Z,50.29
2023-04-10T03:10:51.784Z,50.29
2023-04-10T03:12:00.004Z,49.95
2023-04-10T03:13:08.176Z,50.29
2023-04-10T03:14:16.354Z,50.29
2023-04-10T03:15:24.544Z,50.29
2023-04-10T03:16:33.716Z,50.29
2023-04-10T03:17:42.901Z,50.29
2023-04-10T03:18:52.071Z,50.29
2023-04-10T03:20:01.240Z,50.29
2023-04-10T03:21:10.414Z,50.29
2023-04-10T03:22:19.584Z,50.29
2023-04-10T03:23:28.769Z,50.29
2023-04-10T03:24:37.920Z,50.29
2023-04-10T03:25:47.099Z,50.29
2023-04-10T03:26:56.293Z,50.29
2023-04-10T03:28:05.445Z,50.29
2023-04-10T03:29:13.644Z,50.29
2023-04-10T03:30:22.836Z,50.29
2023-04-10T03:31:31.980Z,50.29
2023-04-10T03:32:41.182Z,50.29
2023-04-10T03:33:50.342Z,50.29
2023-04-10T03:34:59.505Z,50.29
2023-04-10T03:36:08.677Z,50.29
2023-04-10T03:37:17.878Z,50.29
2023-04-10T03:38:26.064Z,50.29
2023-04-10T03:39:34.233Z,50.29
2023-04-10T03:40:43.416Z,50.29
2023-04-10T03:41:52.601Z,50.29
2023-04-10T03:43:00.783Z,50.29
2023-04-10T03:44:08.962Z,50.29
2023-04-10T03:45:18.136Z,50.29
2023-04-10T03:46:27.314Z,50.29
2023-04-10T03:47:36.482Z,50.29
2023-04-10T03:48:45.658Z,50.29
2023-04-10T03:49:54.827Z,50.29
2023-04-10T03:51:04.036Z,50.29
2023-04-10T03:52:13.193Z,50.29
2023-04-10T03:53:22.348Z,50.29
2023-04-10T03:54:31.521Z,50.29
2023-04-10T03:55:40.746Z,50.29
2023-04-10T03:56:49.871Z,50.29
2023-04-10T03:57:59.051Z,50.29
2023-04-10T03:59:07.278Z,50.29
2023-04-10T04:00:16.399Z,50.29
2023-04-10T04:01:25.588Z,50.29
2023-04-10T04:02:34.747Z,50.29
2023-04-10T04:03:43.935Z,50.29
2023-04-10T04:04:53.105Z,50.29
2023-04-10T04:06:02.251Z,50.29
2023-04-10T04:07:10.457Z,50.29
2023-04-10T04:08:18.647Z,50.29
2023-04-10T04:09:26.851Z,50.29
2023-04-10T04:10:35.019Z,50.29
2023-04-10T04:11:44.195Z,50.29
2023-04-10T04:12:53.367Z,49.95
2023-04-10T04:14:02.542Z,50.29
2023-04-10T04:15:11.722Z,50.29
2023-04-10T04:16:20.894Z,50.29
2023-04-10T04:17:30.062Z,49.95
2023-04-10T04:18:39.231Z,50.29
2023-04-10T04:19:48.417Z,50.29
2023-04-10T04:20:57.586Z,50.29
2023-04-10T04:22:06.760Z,50.29
2023-04-10T04:23:15.949Z,50.29
2023-04-10T04:24:25.090Z,50.29
2023-04-10T04:25:33.281Z,50.29
2023-04-10T04:26:42.463Z,50.29
2023-04-10T04:27:51.642Z,50.29
2023-04-10T04:29:00.823Z,50.29
2023-04-10T04:30:09.997Z,50.29
2023-04-10T04:31:19.150Z,50.29
2023-04-10T04:32:28.328Z,50.29
2023-04-10T04:33:36.529Z,50.29
2023-04-10T04:34:44.714Z,50.29
2023-04-10T04:35:52.911Z,50.29
2023-04-10T04:37:01.093Z,50.29
2023-04-10T04:38:10.263Z,50.29
2023-04-10T04:39:19.437Z,50.29
2023-04-10T04:40:28.760Z,50.29
2023-04-10T04:41:37.780Z,50.29
2023-04-10T04:42:46.962Z,50.29
2023-04-10T04:43:56.144Z,50.29
2023-04-10T04:45:05.307Z,50.29
2023-04-10T04:46:14.470Z,50.29
2023-04-10T04:47:23.667Z,50.29
2023-04-10T04:48:32.826Z,50.29
2023-04-10T04:49:42.031Z,50.29
2023-04-10T04:50:51.183Z,50.29
2023-04-10T04:51:59.353Z,50.29
2023-04-10T04:53:08.535Z,50.29
2023-04-10T04:54:17.701Z,50.29
2023-04-10T04:55:26.883Z,50.29
2023-04-10T04:56:36.053Z,50.29
2023-04-10T04:57:45.214Z,50.29
2023-04-10T04:58:54.388Z,50.29
2023-04-10T05:00:02.593Z,50.29
2023-04-10T05:01:10.770Z,50.29
2023-04-10T05:02:18.975Z,50.29
2023-04-10T05:03:27.161Z,50.29
2023-04-10T05:04:36.339Z,50.29
2023-04-10T05:05:45.507Z,49.95
2023-04-10T05:06:54.675Z,50.29
2023-04-10T05:08:03.839Z,50.29
2023-04-10T05:09:13.057Z,50.29
2023-04-10T05:10:22.206Z,50.29
2023-04-10T05:11:31.362Z,49.95
2023-04-10T05:12:40.537Z,50.29
2023-04-10T05:13:49.714Z,50.29
2023-04-10T05:14:58.919Z,50.29
2023-04-10T05:16:08.051Z,50.29
2023-04-10T05:17:17.224Z,50.29
2023-04-10T05:18:25.418Z,50.29
2023-04-10T05:19:34.597Z,50.29
2023-04-10T05:20:43.775Z,50.29
2023-04-10T05:21:52.940Z,50.29
2023-04-10T05:23:02.111Z,50.29
2023-04-10T05:24:11.307Z,50.29
2023-04-10T05:25:20.447Z,50.29
2023-04-10T05:26:28.661Z,50.29
2023-04-10T05:27:36.849Z,50.29
2023-04-10T05:28:45.057Z,50.29
2023-04-10T05:29:53.224Z,50.29
2023-04-10T05:31:02.420Z,50.29
2023-04-10T05:32:11.561Z,50.29
2023-04-10T05:33:20.728Z,50.29
2023-04-10T05:34:29.911Z,50.29
2023-04-10T05:35:39.156Z,50.29
2023-04-10T05:36:48.310Z,50.29
2023-04-10T05:37:57.418Z,50.29
2023-04-10T05:39:06.600Z,50.29
2023-04-10T05:40:15.796Z,50.29
2023-04-10T05:41:24.981Z,50.29
2023-04-10T05:42:34.124Z,50.29
2023-04-10T05:43:43.290Z,50.29
2023-04-10T05:44:51.478Z,50.29
2023-04-10T05:46:00.661Z,50.29
2023-04-10T05:47:09.837Z,50.29
2023-04-10T05:48:19.002Z,50.29
2023-04-10T05:49:28.171Z,49.95
2023-04-10T05:50:37.341Z,50.29
2023-04-10T05:51:46.533Z,50.29
2023-04-10T05:52:54.878Z,50.29
2023-04-10T05:54:02.902Z,50.29
2023-04-10T05:55:12.081Z,49.28
2023-04-10T05:56:21.248Z,50.29
2023-04-10T05:57:30.467Z,50.29
2023-04-10T05:58:39.598Z,49.95
2023-04-10T05:59:48.798Z,50.29
2023-04-10T06:00:57.977Z,50.29
2023-04-10T06:02:07.108Z,50.29
2023-04-10T06:03:16.340Z,49.28
2023-04-10T06:04:25.445Z,49.28
2023-04-10T06:05:34.696Z,49.62
2023-04-10T06:06:43.784Z,50.29
2023-04-10T06:07:52.987Z,50.29
2023-04-10T06:09:01.182Z,50.29
2023-04-10T06:10:10.330Z,50.29
2023-04-10T06:11:19.546Z,50.29
2023-04-10T06:12:28.699Z,50.29
2023-04-10T06:13:37.850Z,50.29
2023-04-10T06:14:47.016Z,50.29
2023-04-10T06:15:56.194Z,50.29
2023-04-10T06:17:04.390Z,49.95
2023-04-10T06:18:12.575Z,50.29
2023-04-10T06:19:20.774Z,49.62
2023-04-10T06:20:28.973Z,50.29
2023-04-10T06:21:38.143Z,50.29
2023-04-10T06:22:47.330Z,50.29
2023-04-10T06:23:56.467Z,50.29
2023-04-10T06:25:05.654Z,50.29
2023-04-10T06:26:14.830Z,50.29
2023-04-10T06:27:23.994Z,50.29
2023-04-10T06:28:33.167Z,50.29
2023-04-10T06:29:42.335Z,50.29
2023-04-10T06:30:51.530Z,49.95
2023-04-10T06:32:00.686Z,50.29
2023-04-10T06:33:09.918Z,50.29
2023-04-10T06:34:19.024Z,49.28
2023-04-10T06:35:27.264Z,50.29
2023-04-10T06:36:36.393Z,49.62
2023-04-10T06:37:45.573Z,50.29
2023-04-10T06:38:54.731Z,50.29
2023-04-10T06:40:03.907Z,50.29
2023-04-10T06:41:13.074Z,50.29
2023-04-10T06:42:22.248Z,50.29
2023-04-10T06:43:30.442Z,50.29
2023-04-10T06:44:38.640Z,50.29
2023-04-10T06:45:46.829Z,50.29
2023-04-10T06:46:55.017Z,49.95
2023-04-10T06:48:04.181Z,49.62
2023-04-10T06:49:13.353Z,49.95
2023-04-10T06:50:22.556Z,49.62
2023-04-10T06:51:31.723Z,49.62
2023-04-10T06:52:40.924Z,50.29
2023-04-10T06:53:50.061Z,49.95
2023-04-10T06:54:59.217Z,48.94
2023-04-10T06:56:08.391Z,49.28
2023-04-10T06:57:17.643Z,49.62
2023-04-10T06:58:26.743Z,49.28
2023-04-10T06:59:35.930Z,49.95
2023-04-10T07:00:45.089Z,49.28
2023-04-10T07:01:54.259Z,49.95
2023-04-10T07:03:03.439Z,50.29
2023-04-10T07:04:11.622Z,50.29
2023-04-10T07:05:20.783Z,49.62
2023-04-10T07:06:29.956Z,49.28
2023-04-10T07:07:39.144Z,49.95
2023-04-10T07:08:48.347Z,47.94
2023-04-10T07:09:56.502Z,48.27
2023-04-10T07:11:04.697Z,48.94
2023-04-10T07:12:12.887Z,49.62
2023-04-10T07:13:22.061Z,50.29
2023-04-10T07:14:30.250Z,50.29
2023-04-10T07:15:39.412Z,49.62
2023-04-10T07:16:48.590Z,49.28
2023-04-10T07:17:57.760Z,49.95
2023-04-10T07:19:06.933Z,49.95
2023-04-10T07:20:15.150Z,49.62
2023-04-10T07:21:24.342Z,50.29
2023-04-10T07:22:33.473Z,48.27
2023-04-10T07:23:42.642Z,49.62
2023-04-10T07:24:51.815Z,49.95
2023-04-10T07:26:00.989Z,49.62
2023-04-10T07:27:10.160Z,49.28
2023-04-10T07:28:19.336Z,48.94
2023-04-10T07:29:28.524Z,49.95
2023-04-10T07:30:37.684Z,48.61
2023-04-10T07:31:46.853Z,49.95
2023-04-10T07:32:56.034Z,49.62
2023-04-10T07:34:05.195Z,48.94
2023-04-10T07:35:13.383Z,49.95
2023-04-10T07:36:21.572Z,49.95
2023-04-10T07:37:29.803Z,48.27
2023-04-10T07:38:38.933Z,49.62
2023-04-10T07:39:48.113Z,49.28
2023-04-10T07:40:57.285Z,49.62
2023-04-10T07:42:05.482Z,48.94
2023-04-10T07:43:13.656Z,49.28
2023-04-10T07:44:22.862Z,48.27
2023-04-10T07:45:32.013Z,48.61
2023-04-10T07:46:41.178Z,48.94
2023-04-10T07:47:50.348Z,48.27
2023-04-10T07:48:59.576Z,47.27
2023-04-10T07:50:08.702Z,49.95
2023-04-10T07:51:17.928Z,48.61
2023-04-10T07:52:27.048Z,49.62
2023-04-10T07:53:36.211Z,48.94
2023-04-10T07:54:45.382Z,48.61
2023-04-10T07:55:54.555Z,49.62
2023-04-10T07:57:03.734Z,49.62
2023-04-10T07:58:12.902Z,48.94
2023-04-10T07:59:21.086Z,49.28
2023-04-10T08:00:30.255Z,47.94
2023-04-10T08:01:39.439Z,48.61
2023-04-10T08:02:48.604Z,46.26
2023-04-10T08:03:57.813Z,46.93
2023-04-10T08:05:06.963Z,48.27
2023-04-10T08:06:15.147Z,47.27
2023-04-10T08:07:23.328Z,48.61
2023-04-10T08:08:31.517Z,47.6
2023-04-10T08:09:39.712Z,48.94
2023-04-10T08:10:48.873Z,48.61
2023-04-10T08:11:58.057Z,47.6
2023-04-10T08:13:07.230Z,48.94
2023-04-10T08:14:16.389Z,49.28
2023-04-10T08:15:25.566Z,48.61
2023-04-10T08:16:34.738Z,49.28
2023-04-10T08:17:43.916Z,49.95
2023-04-10T08:18:53.085Z,48.27
2023-04-10T08:20:02.262Z,48.94
2023-04-10T08:21:11.417Z,48.94
2023-04-10T08:22:20.608Z,48.61
2023-04-10T08:23:29.766Z,49.95
2023-04-10T08:24:37.949Z,48.61
2023-04-10T08:26:56.439Z,48.94
2023-04-10T08:28:05.574Z,49.28
2023-04-10T08:29:14.818Z,48.94
2023-04-10T08:30:23.929Z,48.94
2023-04-10T08:31:33.078Z,49.62
2023-04-10T08:32:42.253Z,48.94
2023-04-10T08:33:51.505Z,49.95
2023-04-10T08:35:00.509Z,49.28
2023-04-10T08:36:09.678Z,48.61
2023-04-10T08:37:19.021Z,48.61
2023-04-10T08:38:28.162Z,48.61
2023-04-10T08:39:36.377Z,49.95
2023-04-10T08:40:45.551Z,49.28
2023-04-10T08:41:54.698Z,47.6
2023-04-10T08:43:03.905Z,48.61
2023-04-10T08:45:22.068Z,48.61
2023-04-10T08:46:31.418Z,49.62
2023-04-10T08:47:40.602Z,48.27
2023-04-10T08:48:49.790Z,49.28
2023-04-10T08:49:58.893Z,48.27
2023-04-10T08:51:08.051Z,48.61
2023-04-10T08:52:17.101Z,48.61
2023-04-10T08:53:26.473Z,49.28
2023-04-10T08:54:34.641Z,47.27
2023-04-10T08:55:43.749Z,48.61
2023-04-10T08:56:52.992Z,49.62
2023-04-10T08:58:02.146Z,49.28
2023-04-10T08:59:11.326Z,47.6
2023-04-10T09:00:20.445Z,49.62
2023-04-10T09:01:29.483Z,48.27
2023-04-10T09:02:38.745Z,48.94
2023-04-10T09:03:47.835Z,46.6
2023-04-10T09:04:57.149Z,49.95
2023-04-10T09:06:06.327Z,49.28
2023-04-10T09:07:15.548Z,47.27
2023-04-10T09:08:24.752Z,46.93
2023-04-10T09:09:32.788Z,46.93
2023-04-10T09:10:42.122Z,46.93
2023-04-10T09:11:51.280Z,48.27
2023-04-10T09:13:00.301Z,48.61
2023-04-10T09:14:09.681Z,47.94
2023-04-10T09:15:18.766Z,47.94
2023-04-10T09:16:27.953Z,46.26
2023-04-10T09:17:37.088Z,47.94
2023-04-10T09:18:45.353Z,49.28
2023-04-10T09:19:53.559Z,47.27
2023-04-10T09:21:02.701Z,49.62
2023-04-10T09:22:11.897Z,47.94
2023-04-10T09:23:21.056Z,47.94
2023-04-10T09:24:30.243Z,49.28
2023-04-10T09:25:38.416Z,48.94
2023-04-10T09:26:47.561Z,50.29
2023-04-10T09:27:55.679Z,48.61
2023-04-10T09:29:05.023Z,49.62
2023-04-10T09:30:14.099Z,48.94
2023-04-10T09:31:23.126Z,49.28
2023-04-10T09:32:32.500Z,49.62
2023-04-10T09:33:41.640Z,49.28
2023-04-10T09:34:50.657Z,48.27
2023-04-10T09:35:59.819Z,47.27
2023-04-10T09:37:09.168Z,49.28
2023-04-10T09:38:18.164Z,46.93
2023-04-10T09:39:27.533Z,48.27
2023-04-10T09:40:36.656Z,48.27
2023-04-10T09:41:45.852Z,48.27
2023-04-10T09:42:54.019Z,47.27
2023-04-10T09:44:03.215Z,49.62
2023-04-10T09:45:12.387Z,46.6
2023-04-10T09:46:21.519Z,47.94
2023-04-10T09:47:30.673Z,47.6
2023-04-10T09:48:39.725Z,47.94
2023-04-10T09:49:49.097Z,50.29
2023-04-10T09:50:57.236Z,49.28
2023-04-10T09:52:06.378Z,49.62
2023-04-10T09:53:14.602Z,49.28
2023-04-10T09:54:23.797Z,46.26
2023-04-10T09:55:32.004Z,48.61
2023-04-10T09:56:40.146Z,47.94
2023-04-10T09:57:49.321Z,47.6
2023-04-10T09:58:58.553Z,47.94
2023-04-10T10:00:07.519Z,48.27
2023-04-10T10:01:16.865Z,48.61
2023-04-10T10:02:26.005Z,48.61
2023-04-10T10:03:35.198Z,46.26
2023-04-10T10:04:44.214Z,47.6
2023-04-10T10:05:53.560Z,48.94
2023-04-10T10:07:02.561Z,48.61
2023-04-10T10:08:11.926Z,49.62
2023-04-10T10:09:20.906Z,49.28
2023-04-10T10:10:30.073Z,47.27
2023-04-10T10:11:38.264Z,48.94
2023-04-10T10:12:47.627Z,49.28
2023-04-10T10:13:56.785Z,49.28
2023-04-10T10:15:05.982Z,48.61
2023-04-10T10:16:14.947Z,49.28
2023-04-10T10:17:24.302Z,47.27
2023-04-10T10:18:33.483Z,48.61
2023-04-10T10:19:41.651Z,47.94
2023-04-10T10:21:59.074Z,48.61
2023-04-10T10:23:08.090Z,47.6
2023-04-10T10:24:17.328Z,48.61
2023-04-10T10:25:26.545Z,46.26
2023-04-10T10:26:34.708Z,48.94
2023-04-10T10:27:42.938Z,50.29
2023-04-10T10:28:52.018Z,47.27
2023-04-10T10:30:01.259Z,49.28
2023-04-10T10:31:10.389Z,47.94
2023-04-10T10:32:19.593Z,50.29
2023-04-10T10:33:28.804Z,47.6
2023-04-10T10:34:38.005Z,49.28
2023-04-10T10:35:47.124Z,49.62
2023-04-10T10:36:56.211Z,49.28
2023-04-10T10:38:05.434Z,46.6
2023-04-10T10:39:14.660Z,48.94
2023-04-10T10:40:23.831Z,49.62
2023-04-10T10:41:32.816Z,47.27
2023-04-10T10:42:41.099Z,48.27
2023-04-10T10:43:50.392Z,49.28
2023-04-10T10:44:59.356Z,49.62
2023-04-10T10:46:08.624Z,49.28
2023-04-10T10:47:17.889Z,48.27
2023-04-10T10:48:27.099Z,49.28
2023-04-10T10:49:36.234Z,47.6
2023-04-10T10:50:44.435Z,49.28
2023-04-10T10:51:52.646Z,48.27
2023-04-10T10:53:01.828Z,48.27
2023-04-10T10:54:10.936Z,48.94
2023-04-10T10:55:20.194Z,49.28
2023-04-10T10:56:28.455Z,47.6
2023-04-10T10:57:36.502Z,48.27
2023-04-10T10:58:45.563Z,48.27
2023-04-10T10:59:54.813Z,47.94
2023-04-10T11:01:03.901Z,49.28
2023-04-10T11:02:13.071Z,47.27
2023-04-10T11:03:22.253Z,49.28
2023-04-10T11:04:31.632Z,49.28
2023-04-10T11:05:40.821Z,48.94
2023-04-10T11:06:49.826Z,49.62
2023-04-10T11:07:59.110Z,50.29
2023-04-10T11:09:08.270Z,49.28
2023-04-10T11:10:17.434Z,48.61
2023-04-10T11:11:25.680Z,48.61
2023-04-10T11:12:34.753Z,49.62
2023-04-10T11:13:44.110Z,47.6
2023-04-10T11:14:53.111Z,49.28
2023-04-10T11:16:02.329Z,48.27
2023-04-10T11:17:11.519Z,47.27
2023-04-10T11:18:20.601Z,46.93
2023-04-10T11:19:29.848Z,49.62
2023-04-10T11:20:38.053Z,47.94
2023-04-10T11:21:46.236Z,46.6
2023-04-10T11:22:54.414Z,49.95
2023-04-10T11:24:02.621Z,48.61
2023-04-10T11:25:11.777Z,47.6
2023-04-10T11:26:20.963Z,48.94
2023-04-10T11:27:30.033Z,49.28
2023-04-10T11:28:39.269Z,49.28
2023-04-10T11:29:48.464Z,49.62
2023-04-10T11:30:57.650Z,48.94
2023-04-10T11:32:06.841Z,48.27
2023-04-10T11:33:15.991Z,48.61
2023-04-10T11:34:25.195Z,49.95
2023-04-10T11:35:34.214Z,48.94
2023-04-10T11:36:43.501Z,49.28
2023-04-10T11:37:52.658Z,48.94
2023-04-10T11:39:00.951Z,49.62
2023-04-10T11:40:10.037Z,50.29
2023-04-10T11:41:19.246Z,47.6
2023-04-10T11:42:28.205Z,47.94
2023-04-10T11:43:37.384Z,48.94
2023-04-10T11:44:46.613Z,47.94
2023-04-10T11:45:55.934Z,46.93
2023-04-10T11:47:04.114Z,47.94
2023-04-10T11:48:13.281Z,49.28
2023-04-10T11:49:21.433Z,49.28
2023-04-10T11:50:29.709Z,48.61
2023-04-10T11:51:38.804Z,47.94
2023-04-10T11:52:47.959Z,49.28
2023-04-10T11:53:57.174Z,48.61
2023-04-10T11:55:06.313Z,49.95
2023-04-10T11:56:15.452Z,49.95
2023-04-10T11:57:24.677Z,48.61
2023-04-10T11:58:33.796Z,49.28
2023-04-10T11:59:43.010Z,48.94
2023-04-10T12:02:01.255Z,49.28
2023-04-10T12:03:10.563Z,48.27
2023-04-10T12:04:19.674Z,48.27
2023-04-10T12:05:27.811Z,48.94
2023-04-10T12:06:37.015Z,48.61
2023-04-10T12:07:46.223Z,48.61
2023-04-10T12:08:55.398Z,49.95
2023-04-10T12:10:04.565Z,49.62
2023-04-10T12:11:13.713Z,48.27
2023-04-10T12:12:22.884Z,47.27
2023-04-10T12:13:32.101Z,47.6
2023-04-10T12:14:40.308Z,50.29
2023-04-10T12:15:48.410Z,48.61
2023-04-10T12:16:57.629Z,48.27
2023-04-10T12:18:06.784Z,49.28
2023-04-10T12:19:15.935Z,48.94
2023-04-10T12:20:24.184Z,49.62
2023-04-10T12:21:32.313Z,48.61
2023-04-10T12:22:41.559Z,48.94
2023-04-10T12:23:50.691Z,49.62
2023-04-10T12:24:59.911Z,47.6
2023-04-10T12:26:09.082Z,48.61
2023-04-10T12:27:18.214Z,49.95
2023-04-10T12:28:27.360Z,48.94
2023-04-10T12:29:36.589Z,48.27
2023-04-10T12:30:45.809Z,49.62
2023-04-10T12:31:54.929Z,49.95
2023-04-10T12:33:04.029Z,48.94
2023-04-10T12:34:13.266Z,48.61
2023-04-10T12:35:22.458Z,49.28
2023-04-10T12:36:30.726Z,49.28
2023-04-10T12:37:39.632Z,47.27
2023-04-10T12:38:48.981Z,47.94
2023-04-10T12:39:58.094Z,48.61
2023-04-10T12:41:07.320Z,47.94
2023-04-10T12:42:16.339Z,48.27
2023-04-10T12:43:25.691Z,48.27
2023-04-10T12:44:33.770Z,48.94
2023-04-10T12:45:42.130Z,47.6
2023-04-10T12:46:51.247Z,49.62
2023-04-10T12:47:59.462Z,48.94
2023-04-10T12:49:07.501Z,48.61
2023-04-10T12:50:16.774Z,49.95
2023-04-10T12:51:25.963Z,49.28
2023-04-10T12:52:35.128Z,49.62
2023-04-10T12:53:44.167Z,48.94
2023-04-10T12:54:53.531Z,49.28
2023-04-10T12:56:02.613Z,48.94
2023-04-10T12:57:11.744Z,49.28
2023-04-10T12:58:20.973Z,47.94
2023-04-10T12:59:30.157Z,48.61
2023-04-10T13:00:39.330Z,48.27
2023-04-10T13:01:48.580Z,47.94
2023-04-10T13:02:57.703Z,45.59
2023-04-10T13:04:05.804Z,49.28
2023-04-10T13:05:15.018Z,48.61
2023-04-10T13:06:24.240Z,47.27
2023-04-10T13:07:33.376Z,48.94
2023-04-10T13:08:42.603Z,48.94
2023-04-10T13:09:51.711Z,47.94
2023-04-10T13:11:00.761Z,48.94
2023-04-10T13:12:08.908Z,49.28
2023-04-10T13:13:17.218Z,47.94
2023-04-10T13:14:25.465Z,48.61
2023-04-10T13:15:33.619Z,49.62
2023-04-10T13:16:42.836Z,46.6
2023-04-10T13:17:51.941Z,49.28
2023-04-10T13:19:01.177Z,49.28
2023-04-10T13:20:10.314Z,48.61
2023-04-10T13:21:19.355Z,46.6
2023-04-10T13:22:28.690Z,48.61
2023-04-10T13:23:37.965Z,49.62
2023-04-10T13:24:47.057Z,47.94
2023-04-10T13:25:56.194Z,49.62
2023-04-10T13:27:05.341Z,49.95
2023-04-10T13:28:14.469Z,49.62
2023-04-10T13:29:23.547Z,50.29
2023-04-10T13:30:31.731Z,48.61
2023-04-10T13:31:41.056Z,49.62
2023-04-10T13:32:50.280Z,48.94
2023-04-10T13:33:59.274Z,48.27
2023-04-10T13:35:08.658Z,49.95
2023-04-10T13:36:17.747Z,49.95
2023-04-10T13:37:26.916Z,48.61
2023-04-10T13:38:34.959Z,49.62
2023-04-10T13:39:43.275Z,48.94
2023-04-10T13:40:52.504Z,48.61
2023-04-10T13:42:01.588Z,48.94
2023-04-10T13:43:10.666Z,49.62
2023-04-10T13:44:18.931Z,46.6
2023-04-10T13:45:27.150Z,47.94
2023-04-10T13:46:36.271Z,47.94
2023-04-10T13:47:45.450Z,47.6
2023-04-10T13:48:54.717Z,47.6
2023-04-10T13:50:03.731Z,48.27
2023-04-10T13:51:12.922Z,48.61
2023-04-10T13:52:22.134Z,49.28
2023-04-10T13:53:31.318Z,48.94
2023-04-10T13:54:40.429Z,48.61
2023-04-10T13:55:49.643Z,47.27
2023-04-10T13:56:58.891Z,48.27
2023-04-10T13:58:07.948Z,46.93
2023-04-10T13:59:17.291Z,48.94
2023-04-10T14:00:25.444Z,48.61
2023-04-10T14:01:34.562Z,47.6
2023-04-10T14:02:43.652Z,49.62
2023-04-10T14:03:52.844Z,47.6
2023-04-10T14:05:02.004Z,45.93
2023-04-10T14:06:11.258Z,49.28
2023-04-10T14:07:20.350Z,47.27
2023-04-10T14:08:29.511Z,45.26
2023-04-10T14:09:38.720Z,48.61
2023-04-10T14:10:47.878Z,47.6
2023-04-10T14:11:57.079Z,45.59
2023-04-10T14:13:06.279Z,47.27
2023-04-10T14:15:24.548Z,48.27
2023-04-10T14:16:32.724Z,47.94
2023-04-10T14:17:41.904Z,48.61
2023-04-10T14:18:51.054Z,47.94
2023-04-10T14:20:00.293Z,48.94
2023-04-10T14:21:09.432Z,49.28
2023-04-10T14:22:18.585Z,47.6
2023-04-10T14:23:27.802Z,48.61
2023-04-10T14:24:36.933Z,48.27
2023-04-10T14:25:45.131Z,47.27
2023-04-10T14:26:53.306Z,47.94
2023-04-10T14:28:02.491Z,47.6
2023-04-10T14:29:10.722Z,47.94
2023-04-10T14:30:18.874Z,48.61
2023-04-10T14:31:28.045Z,48.27
2023-04-10T14:32:37.271Z,48.94
2023-04-10T14:33:46.463Z,49.95
2023-04-10T14:34:55.653Z,45.26
2023-04-10T14:36:04.765Z,49.62
2023-04-10T14:37:13.895Z,45.59
2023-04-10T14:38:23.081Z,48.27
2023-04-10T14:39:32.322Z,49.62
2023-04-10T14:40:41.470Z,49.62
2023-04-10T14:41:50.600Z,48.27
2023-04-10T14:42:59.763Z,48.27
2023-04-10T14:44:08.942Z,47.27
2023-04-10T14:45:17.170Z,46.6
2023-04-10T14:46:26.288Z,46.26
2023-04-10T14:47:35.457Z,49.62
2023-04-10T14:48:44.626Z,48.94
2023-04-10T14:49:53.806Z,48.61
2023-04-10T14:51:03.010Z,48.61
2023-04-10T14:52:12.161Z,48.94
2023-04-10T14:53:20.354Z,47.6
2023-04-10T14:54:28.552Z,47.6
2023-04-10T14:55:37.735Z,48.61
2023-04-10T14:56:45.900Z,49.62